Time,TemperatureF,DewpointF,PressureIn,WindDirection,WindDirectionDegrees,WindSpeedMPH,WindSpeedGustMPH,Humidity,HourlyPrecipIn,Conditions,Clouds,dailyrainin,SoftwareType,DateUTC
2013-05-10 00:22:00,47.0,44.0,30.05,North,0,0.0,-999.0,89,0.00,,,-99.99,,2013-05-10 07:22:00,
2013-05-10 00:31:00,47.0,44.0,30.05,North,0,0.0,-999.0,89,0.00,,,-99.99,,2013-05-10 07:31:00,
2013-05-10 00:42:00,47.0,44.0,30.05,North,0,0.0,-999.0,89,0.00,,,-99.99,,2013-05-10 07:42:00,
2013-05-10 00:52:00,47.0,44.0,30.05,North,0,0.0,-999.0,89,0.00,,,-99.99,,2013-05-10 07:52:00,
2013-05-10 01:21:00,46.0,43.0,30.05,North,0,0.0,-999.0,89,0.00,,,-99.99,,2013-05-10 08:21:00,
2013-05-10 01:32:00,46.0,43.0,30.05,North,0,0.0,-999.0,89,0.00,,,-99.99,,2013-05-10 08:32:00,
2013-05-10 01:42:00,46.0,43.0,30.05,North,0,0.0,-999.0,89,0.00,,,-99.99,,2013-05-10 08:42:00,
2013-05-10 01:52:00,46.0,43.0,30.05,North,0,0.0,-999.0,89,0.00,,,-99.99,,2013-05-10 08:52:00,
2013-05-10 02:21:00,46.0,43.0,30.04,North,0,0.0,-999.0,90,0.00,,,-99.99,,2013-05-10 09:21:00,
2013-05-10 02:32:00,46.0,43.0,30.04,North,0,0.0,-999.0,90,0.00,,,-99.99,,2013-05-10 09:32:00,
2013-05-10 02:42:00,46.0,43.0,30.04,North,0,0.0,-999.0,90,0.00,,,-99.99,,2013-05-10 09:42:00,
2013-05-10 02:52:00,46.0,43.0,30.04,North,0,0.0,-999.0,90,0.00,,,-99.99,,2013-05-10 09:52:00,
2013-05-10 03:23:00,45.0,43.0,30.03,North,0,0.0,-999.0,91,0.00,,,-99.99,,2013-05-10 10:23:00,
2013-05-10 03:32:00,45.0,43.0,30.03,North,0,0.0,-999.0,91,0.00,,,-99.99,,2013-05-10 10:32:00,
2013-05-10 03:42:00,45.0,43.0,30.03,North,0,0.0,-999.0,91,0.00,,,-99.99,,2013-05-10 10:42:00,
2013-05-10 03:52:00,45.0,43.0,30.03,North,0,0.0,-999.0,91,0.00,,,-99.99,,2013-05-10 10:52:00,
2013-05-10 04:21:00,44.0,42.0,30.04,North,0,0.0,-999.0,93,0.00,,,-99.99,,2013-05-10 11:21:00,
2013-05-10 04:32:00,44.0,42.0,30.04,North,0,0.0,-999.0,93,0.00,,,-99.99,,2013-05-10 11:32:00,
2013-05-10 04:42:00,44.0,42.0,30.04,North,0,0.0,-999.0,93,0.00,,,-99.99,,2013-05-10 11:42:00,
2013-05-10 04:51:00,44.0,42.0,30.04,North,0,0.0,-999.0,93,0.00,,,-99.99,,2013-05-10 11:51:00,
2013-05-10 05:21:00,43.0,41.0,30.03,North,0,0.0,-999.0,94,0.00,,,-99.99,,2013-05-10 12:21:00,
2013-05-10 05:32:00,43.0,41.0,30.03,North,0,0.0,-999.0,94,0.00,,,-99.99,,2013-05-10 12:32:00,
2013-05-10 05:42:00,43.0,41.0,30.03,North,0,0.0,-999.0,94,0.00,,,-99.99,,2013-05-10 12:42:00,
2013-05-10 05:51:00,43.0,41.0,30.03,North,0,0.0,-999.0,94,0.00,,,-99.99,,2013-05-10 12:51:00,
2013-05-10 06:21:00,43.0,42.0,30.04,North,0,0.0,-999.0,95,0.00,,,-99.99,,2013-05-10 13:21:00,
2013-05-10 06:32:00,43.0,42.0,30.04,North,0,0.0,-999.0,95,0.00,,,-99.99,,2013-05-10 13:32:00,
2013-05-10 06:41:00,43.0,42.0,30.04,North,0,0.0,-999.0,95,0.00,,,-99.99,,2013-05-10 13:41:00,
2013-05-10 06:52:00,43.0,42.0,30.04,North,0,0.0,-999.0,95,0.00,,,-99.99,,2013-05-10 13:52:00,
2013-05-10 07:21:00,47.0,45.0,30.06,North,0,0.0,-999.0,93,0.00,,,-99.99,,2013-05-10 14:21:00,
2013-05-10 07:32:00,47.0,45.0,30.06,North,0,0.0,-999.0,93,0.00,,,-99.99,,2013-05-10 14:32:00,
2013-05-10 07:41:00,47.0,45.0,30.06,North,0,0.0,-999.0,93,0.00,,,-99.99,,2013-05-10 14:41:00,
2013-05-10 07:51:00,47.0,45.0,30.06,North,0,0.0,-999.0,93,0.00,,,-99.99,,2013-05-10 14:51:00,
2013-05-10 08:21:00,54.0,47.0,30.06,North,10,4.0,-999.0,78,0.00,,,-99.99,,2013-05-10 15:21:00,
2013-05-10 08:32:00,54.0,47.0,30.06,North,10,4.0,-999.0,78,0.00,,,-99.99,,2013-05-10 15:32:00,
2013-05-10 08:42:00,54.0,47.0,30.06,North,10,4.0,-999.0,78,0.00,,,-99.99,,2013-05-10 15:42:00,
2013-05-10 08:52:00,54.0,47.0,30.06,North,10,4.0,-999.0,78,0.00,,,-99.99,,2013-05-10 15:52:00,
2013-05-10 09:23:00,59.0,49.0,30.06,North,0,0.0,-999.0,69,0.00,,,-99.99,,2013-05-10 16:23:00,
2013-05-10 09:32:00,59.0,49.0,30.06,North,0,0.0,-999.0,69,0.00,,,-99.99,,2013-05-10 16:32:00,
2013-05-10 09:42:00,59.0,49.0,30.06,North,0,0.0,-999.0,69,0.00,,,-99.99,,2013-05-10 16:42:00,
2013-05-10 09:52:00,59.0,49.0,30.06,North,0,0.0,-999.0,69,0.00,,,-99.99,,2013-05-10 16:52:00,
2013-05-10 10:54:00,67.0,45.0,30.07,North,0,0.0,-999.0,45,0.00,,,-99.99,,2013-05-10 17:54:00,
2013-05-10 11:22:00,67.0,45.0,30.07,North,0,0.0,-999.0,45,0.00,,,-99.99,,2013-05-10 18:22:00,
2013-05-10 11:34:00,67.0,45.0,30.07,North,0,0.0,-999.0,45,0.00,,,-99.99,,2013-05-10 18:34:00,
2013-05-10 11:43:00,67.0,45.0,30.07,North,0,0.0,-999.0,45,0.00,,,-99.99,,2013-05-10 18:43:00,
2013-05-10 12:21:00,69.0,42.0,30.08,North,0,0.0,-999.0,38,0.00,,,-99.99,,2013-05-10 19:21:00,
2013-05-10 12:32:00,69.0,42.0,30.08,North,0,0.0,-999.0,38,0.00,,,-99.99,,2013-05-10 19:32:00,
2013-05-10 12:42:00,69.0,42.0,30.08,North,0,0.0,-999.0,38,0.00,,,-99.99,,2013-05-10 19:42:00,
2013-05-10 12:52:00,69.0,42.0,30.08,North,0,0.0,-999.0,38,0.00,,,-99.99,,2013-05-10 19:52:00,
2013-05-10 13:21:00,70.0,41.0,30.07,SE,130,6.0,-999.0,35,0.00,,,-99.99,,2013-05-10 20:21:00,
2013-05-10 13:32:00,70.0,41.0,30.07,SE,130,6.0,-999.0,35,0.00,,,-99.99,,2013-05-10 20:32:00,
2013-05-10 13:41:00,70.0,41.0,30.07,SE,130,6.0,-999.0,35,0.00,,,-99.99,,2013-05-10 20:41:00,
2013-05-10 13:52:00,70.0,41.0,30.07,SE,130,6.0,-999.0,35,0.00,,,-99.99,,2013-05-10 20:52:00,
2013-05-10 14:24:00,70.0,41.0,30.07,NE,50,2.0,-999.0,35,0.00,,,-99.99,,2013-05-10 21:24:00,
2013-05-10 14:32:00,70.0,41.0,30.07,NE,50,2.0,-999.0,35,0.00,,,-99.99,,2013-05-10 21:32:00,
2013-05-10 14:43:00,70.0,41.0,30.07,NE,50,2.0,-999.0,35,0.00,,,-99.99,,2013-05-10 21:43:00,
2013-05-10 14:52:00,70.0,41.0,30.07,NE,50,2.0,-999.0,35,0.00,,,-99.99,,2013-05-10 21:52:00,
2013-05-10 15:22:00,73.0,40.0,30.04,ESE,110,1.0,-999.0,30,0.00,,,-99.99,,2013-05-10 22:22:00,
2013-05-10 15:32:00,73.0,40.0,30.04,ESE,110,1.0,-999.0,30,0.00,,,-99.99,,2013-05-10 22:32:00,
2013-05-10 15:42:00,73.0,40.0,30.04,ESE,110,1.0,-999.0,30,0.00,,,-99.99,,2013-05-10 22:42:00,
2013-05-10 15:52:00,73.0,40.0,30.04,ESE,110,1.0,-999.0,30,0.00,,,-99.99,,2013-05-10 22:52:00,
2013-05-10 16:22:00,74.0,35.0,30.02,North,0,0.0,-999.0,24,0.00,,,-99.99,,2013-05-10 23:22:00,
2013-05-10 16:32:00,74.0,35.0,30.02,North,0,0.0,-999.0,24,0.00,,,-99.99,,2013-05-10 23:32:00,
2013-05-10 16:41:00,74.0,35.0,30.02,North,0,0.0,-999.0,24,0.00,,,-99.99,,2013-05-10 23:41:00,
2013-05-10 16:52:00,74.0,35.0,30.02,North,0,0.0,-999.0,24,0.00,,,-99.99,,2013-05-10 23:52:00,
2013-05-10 17:21:00,72.0,33.0,30.02,North,0,0.0,-999.0,24,0.00,,,-99.99,,2013-05-11 00:21:00,
2013-05-10 17:32:00,72.0,33.0,30.02,North,0,0.0,-999.0,24,0.00,,,-99.99,,2013-05-11 00:32:00,
2013-05-10 17:42:00,72.0,33.0,30.02,North,0,0.0,-999.0,24,0.00,,,-99.99,,2013-05-11 00:42:00,
2013-05-10 17:51:00,72.0,33.0,30.02,North,0,0.0,-999.0,24,0.00,,,-99.99,,2013-05-11 00:51:00,
2013-05-10 18:21:00,69.0,34.0,30.01,North,0,0.0,-999.0,27,0.00,,,-99.99,,2013-05-11 01:21:00,
2013-05-10 18:31:00,69.0,34.0,30.01,North,0,0.0,-999.0,27,0.00,,,-99.99,,2013-05-11 01:31:00,
2013-05-10 18:42:00,69.0,34.0,30.01,North,0,0.0,-999.0,27,0.00,,,-99.99,,2013-05-11 01:42:00,
2013-05-10 18:52:00,69.0,34.0,30.01,North,0,0.0,-999.0,27,0.00,,,-99.99,,2013-05-11 01:52:00,
2013-05-10 19:21:00,68.0,35.0,30.01,North,0,0.0,-999.0,30,0.00,,,-99.99,,2013-05-11 02:21:00,
2013-05-10 19:32:00,68.0,35.0,30.01,North,0,0.0,-999.0,30,0.00,,,-99.99,,2013-05-11 02:32:00,
2013-05-10 20:21:00,61.0,40.0,30.03,North,0,0.0,-999.0,45,0.00,,,-99.99,,2013-05-11 03:21:00,
2013-05-10 20:32:00,61.0,40.0,30.03,North,0,0.0,-999.0,45,0.00,,,-99.99,,2013-05-11 03:32:00,
2013-05-10 20:42:00,61.0,40.0,30.03,North,0,0.0,-999.0,45,0.00,,,-99.99,,2013-05-11 03:42:00,
2013-05-10 20:53:00,61.0,40.0,30.03,North,0,0.0,-999.0,45,0.00,,,-99.99,,2013-05-11 03:53:00,
2013-05-10 21:23:00,57.0,39.0,30.05,North,0,0.0,-999.0,50,0.00,,,-99.99,,2013-05-11 04:23:00,
2013-05-10 21:33:00,57.0,39.0,30.05,North,0,0.0,-999.0,50,0.00,,,-99.99,,2013-05-11 04:33:00,
2013-05-10 21:43:00,57.0,39.0,30.05,North,0,0.0,-999.0,50,0.00,,,-99.99,,2013-05-11 04:43:00,
2013-05-10 21:52:00,57.0,39.0,30.05,North,0,0.0,-999.0,50,0.00,,,-99.99,,2013-05-11 04:52:00,
2013-05-10 22:21:00,54.0,38.0,30.06,North,0,0.0,-999.0,54,0.00,,,-99.99,,2013-05-11 05:21:00,
2013-05-10 22:32:00,54.0,38.0,30.06,North,0,0.0,-999.0,54,0.00,,,-99.99,,2013-05-11 05:32:00,
2013-05-10 22:42:00,54.0,38.0,30.06,North,0,0.0,-999.0,54,0.00,,,-99.99,,2013-05-11 05:42:00,
2013-05-10 22:52:00,54.0,38.0,30.06,North,0,0.0,-999.0,54,0.00,,,-99.99,,2013-05-11 05:52:00,
2013-05-10 23:21:00,53.0,43.0,30.07,North,0,0.0,-999.0,69,0.00,,,-99.99,,2013-05-11 06:21:00,
2013-05-10 23:32:00,53.0,43.0,30.07,North,0,0.0,-999.0,69,0.00,,,-99.99,,2013-05-11 06:32:00,